sensor_id;sensor_type;location;lat;lon;timestamp;pressure;altitude;pressure_sealevel;temperature;humidity
47883;BME280;37739;50.350;7.578;2022-09-30T00:01:53;98971.72;;;8.42;77.10
47883;BME280;37739;50.350;7.578;2022-09-30T00:04:20;98976.72;;;8.41;77.36
47883;BME280;37739;50.350;7.578;2022-09-30T00:06:46;98981.75;;;8.38;77.08
47883;BME280;37739;50.350;7.578;2022-09-30T00:09:14;98976.66;;;8.38;77.30
47883;BME280;37739;50.350;7.578;2022-09-30T00:11:43;98976.53;;;8.35;76.95
47883;BME280;37739;50.350;7.578;2022-09-30T00:14:15;98973.06;;;8.33;76.97
47883;BME280;37739;50.350;7.578;2022-09-30T00:16:44;98972.22;;;8.32;77.36
47883;BME280;37739;50.350;7.578;2022-09-30T00:19:10;98975.69;;;8.34;77.31
47883;BME280;37739;50.350;7.578;2022-09-30T00:21:36;98975.63;;;8.33;77.10
47883;BME280;37739;50.350;7.578;2022-09-30T00:24:05;98973.72;;;8.27;77.50
47883;BME280;37739;50.350;7.578;2022-09-30T00:26:32;98976.16;;;8.22;77.44
47883;BME280;37739;50.350;7.578;2022-09-30T00:29:01;98979.31;;;8.15;78.14
47883;BME280;37739;50.350;7.578;2022-09-30T00:31:33;98982.28;;;8.02;79.45
47883;BME280;37739;50.350;7.578;2022-09-30T00:33:58;98979.50;;;7.96;80.15
47883;BME280;37739;50.350;7.578;2022-09-30T00:36:38;98980.16;;;7.90;80.65
47883;BME280;37739;50.350;7.578;2022-09-30T00:39:06;98983.59;;;7.91;80.77
47883;BME280;37739;50.350;7.578;2022-09-30T00:41:33;98983.66;;;7.92;80.61
47883;BME280;37739;50.350;7.578;2022-09-30T00:44:37;98986.25;;;7.94;80.54
47883;BME280;37739;50.350;7.578;2022-09-30T00:46:47;98983.69;;;7.94;80.91
47883;BME280;37739;50.350;7.578;2022-09-30T00:49:16;98990.50;;;7.93;81.61
47883;BME280;37739;50.350;7.578;2022-09-30T00:51:48;98990.38;;;7.90;82.02
47883;BME280;37739;50.350;7.578;2022-09-30T00:54:19;98991.31;;;7.92;81.75
47883;BME280;37739;50.350;7.578;2022-09-30T00:56:50;98989.53;;;7.90;81.88
47883;BME280;37739;50.350;7.578;2022-09-30T00:59:33;99001.47;;;7.91;82.17
47883;BME280;37739;50.350;7.578;2022-09-30T01:02:02;99003.22;;;7.92;81.93
47883;BME280;37739;50.350;7.578;2022-09-30T01:04:30;99005.66;;;7.89;82.08
47883;BME280;37739;50.350;7.578;2022-09-30T01:07:06;99005.78;;;7.92;82.68
47883;BME280;37739;50.350;7.578;2022-09-30T01:09:34;99000.72;;;7.93;82.43
47883;BME280;37739;50.350;7.578;2022-09-30T01:12:07;99002.34;;;7.91;82.30
47883;BME280;37739;50.350;7.578;2022-09-30T01:14:34;99001.53;;;7.92;82.65
47883;BME280;37739;50.350;7.578;2022-09-30T01:17:10;99004.91;;;7.91;82.70
47883;BME280;37739;50.350;7.578;2022-09-30T01:20:19;99006.53;;;7.89;82.62
47883;BME280;37739;50.350;7.578;2022-09-30T01:34:10;99018.72;;;7.72;81.88
47883;BME280;37739;50.350;7.578;2022-09-30T01:37:05;99015.81;;;7.63;81.78
47883;BME280;37739;50.350;7.578;2022-09-30T01:39:41;99017.38;;;7.59;82.31
47883;BME280;37739;50.350;7.578;2022-09-30T01:44:59;99013.50;;;7.46;82.69
47883;BME280;37739;50.350;7.578;2022-09-30T01:47:42;99025.31;;;7.43;82.57
47883;BME280;37739;50.350;7.578;2022-09-30T01:50:19;99016.25;;;7.51;82.63
47883;BME280;37739;50.350;7.578;2022-09-30T01:52:57;99026.53;;;7.53;82.95
47883;BME280;37739;50.350;7.578;2022-09-30T01:55:39;99024.91;;;7.56;83.24
47883;BME280;37739;50.350;7.578;2022-09-30T01:58:11;99020.88;;;7.61;82.97
47883;BME280;37739;50.350;7.578;2022-09-30T02:00:43;99020.09;;;7.64;83.31
47883;BME280;37739;50.350;7.578;2022-09-30T02:03:27;99023.53;;;7.64;82.85
47883;BME280;37739;50.350;7.578;2022-09-30T02:06:03;99020.94;;;7.63;83.57
47883;BME280;37739;50.350;7.578;2022-09-30T02:08:55;99031.84;;;7.59;84.17
47883;BME280;37739;50.350;7.578;2022-09-30T02:11:40;99038.66;;;7.60;84.63
47883;BME280;37739;50.350;7.578;2022-09-30T02:14:26;99039.56;;;7.60;83.72
47883;BME280;37739;50.350;7.578;2022-09-30T02:17:03;99050.44;;;7.56;83.64
47883;BME280;37739;50.350;7.578;2022-09-30T02:19:39;99049.59;;;7.56;84.59
47883;BME280;37739;50.350;7.578;2022-09-30T02:24:41;99052.25;;;7.59;83.31
47883;BME280;37739;50.350;7.578;2022-09-30T02:27:14;99052.19;;;7.57;83.77
47883;BME280;37739;50.350;7.578;2022-09-30T02:29:46;99047.88;;;7.56;84.11
47883;BME280;37739;50.350;7.578;2022-09-30T02:32:19;99044.25;;;7.50;83.52
47883;BME280;37739;50.350;7.578;2022-09-30T02:34:49;99038.06;;;7.43;84.20
47883;BME280;37739;50.350;7.578;2022-09-30T02:37:20;99031.28;;;7.43;83.86
47883;BME280;37739;50.350;7.578;2022-09-30T02:39:56;99039.56;;;7.38;84.07
47883;BME280;37739;50.350;7.578;2022-09-30T02:42:26;99034.41;;;7.36;83.27
47883;BME280;37739;50.350;7.578;2022-09-30T02:45:07;99028.22;;;7.30;83.25
47883;BME280;37739;50.350;7.578;2022-09-30T02:58:07;99049.47;;;7.07;83.64
47883;BME280;37739;50.350;7.578;2022-09-30T03:00:35;99038.56;;;7.12;83.67
47883;BME280;37739;50.350;7.578;2022-09-30T03:03:07;99041.03;;;7.08;83.53
47883;BME280;37739;50.350;7.578;2022-09-30T03:05:37;99041.94;;;7.11;83.40
47883;BME280;37739;50.350;7.578;2022-09-30T03:08:03;99047.16;;;7.14;83.56
47883;BME280;37739;50.350;7.578;2022-09-30T03:10:29;99045.38;;;7.11;82.94
47883;BME280;37739;50.350;7.578;2022-09-30T03:19:12;99048.72;;;7.10;83.36
47883;BME280;37739;50.350;7.578;2022-09-30T03:21:46;99048.97;;;7.16;83.40
47883;BME280;37739;50.350;7.578;2022-09-30T03:32:47;99076.91;;;7.13;84.39
47883;BME280;37739;50.350;7.578;2022-09-30T03:38:10;99082.22;;;7.19;84.48
47883;BME280;37739;50.350;7.578;2022-09-30T03:43:43;99092.72;;;7.27;83.81
47883;BME280;37739;50.350;7.578;2022-09-30T03:48:47;99106.38;;;7.27;83.83
47883;BME280;37739;50.350;7.578;2022-09-30T03:51:16;99103.78;;;7.26;84.32
47883;BME280;37739;50.350;7.578;2022-09-30T03:53:44;99097.03;;;7.28;84.11
47883;BME280;37739;50.350;7.578;2022-09-30T03:56:11;99098.97;;;7.34;84.31
47883;BME280;37739;50.350;7.578;2022-09-30T03:58:40;99108.41;;;7.36;84.93
47883;BME280;37739;50.350;7.578;2022-09-30T04:01:18;99110.81;;;7.33;84.59
47883;BME280;37739;50.350;7.578;2022-09-30T04:03:48;99114.34;;;7.35;84.84
47883;BME280;37739;50.350;7.578;2022-09-30T04:06:20;99115.94;;;7.33;84.51
47883;BME280;37739;50.350;7.578;2022-09-30T04:08:46;99116.75;;;7.32;84.24
47883;BME280;37739;50.350;7.578;2022-09-30T04:11:13;99112.41;;;7.30;84.06
47883;BME280;37739;50.350;7.578;2022-09-30T04:13:38;99114.22;;;7.32;83.95
47883;BME280;37739;50.350;7.578;2022-09-30T04:16:06;99111.28;;;7.23;84.77
47883;BME280;37739;50.350;7.578;2022-09-30T04:18:35;99120.66;;;7.01;85.60
47883;BME280;37739;50.350;7.578;2022-09-30T04:21:06;99116.72;;;7.10;85.83
47883;BME280;37739;50.350;7.578;2022-09-30T04:23:39;99117.88;;;7.18;85.83
47883;BME280;37739;50.350;7.578;2022-09-30T04:26:09;99117.25;;;7.23;85.55
47883;BME280;37739;50.350;7.578;2022-09-30T04:28:34;99103.88;;;7.29;85.12
47883;BME280;37739;50.350;7.578;2022-09-30T04:31:04;99111.59;;;7.31;85.50
47883;BME280;37739;50.350;7.578;2022-09-30T04:33:30;99116.75;;;7.32;84.92
47883;BME280;37739;50.350;7.578;2022-09-30T04:35:57;99113.28;;;7.30;85.38
47883;BME280;37739;50.350;7.578;2022-09-30T04:38:25;99116.09;;;7.15;86.10
47883;BME280;37739;50.350;7.578;2022-09-30T04:40:54;99122.13;;;7.17;86.77
47883;BME280;37739;50.350;7.578;2022-09-30T04:43:20;99125.03;;;7.26;86.52
47883;BME280;37739;50.350;7.578;2022-09-30T04:45:48;99137.88;;;7.28;85.99
47883;BME280;37739;50.350;7.578;2022-09-30T04:48:13;99141.84;;;7.21;85.67
47883;BME280;37739;50.350;7.578;2022-09-30T04:50:39;99132.53;;;7.22;86.21
47883;BME280;37739;50.350;7.578;2022-09-30T04:53:10;99142.97;;;7.28;85.94
47883;BME280;37739;50.350;7.578;2022-09-30T04:55:36;99147.22;;;7.27;85.70
47883;BME280;37739;50.350;7.578;2022-09-30T04:58:06;99148.56;;;7.19;85.99
47883;BME280;37739;50.350;7.578;2022-09-30T05:00:33;99156.13;;;7.16;86.54
47883;BME280;37739;50.350;7.578;2022-09-30T05:03:04;99155.34;;;7.19;85.30
47883;BME280;37739;50.350;7.578;2022-09-30T05:05:32;99152.66;;;7.16;85.22
47883;BME280;37739;50.350;7.578;2022-09-30T05:08:04;99153.94;;;7.04;85.28
47883;BME280;37739;50.350;7.578;2022-09-30T05:10:34;99166.81;;;7.07;85.27
47883;BME280;37739;50.350;7.578;2022-09-30T05:13:02;99172.59;;;7.03;85.38
47883;BME280;37739;50.350;7.578;2022-09-30T05:15:35;99175.63;;;6.95;85.41
47883;BME280;37739;50.350;7.578;2022-09-30T05:18:03;99176.81;;;7.03;85.11
47883;BME280;37739;50.350;7.578;2022-09-30T05:20:30;99173.38;;;7.02;84.57
47883;BME280;37739;50.350;7.578;2022-09-30T05:22:55;99175.06;;;7.02;85.01
47883;BME280;37739;50.350;7.578;2022-09-30T05:25:21;99184.28;;;6.98;84.61
47883;BME280;37739;50.350;7.578;2022-09-30T05:27:49;99181.41;;;6.91;84.76
47883;BME280;37739;50.350;7.578;2022-09-30T05:30:15;99185.78;;;6.93;85.21
47883;BME280;37739;50.350;7.578;2022-09-30T05:32:40;99180.72;;;6.95;84.39
47883;BME280;37739;50.350;7.578;2022-09-30T05:35:06;99184.88;;;6.93;84.75
47883;BME280;37739;50.350;7.578;2022-09-30T05:37:32;99189.97;;;6.93;84.87
47883;BME280;37739;50.350;7.578;2022-09-30T05:40:00;99187.56;;;6.96;84.97
47883;BME280;37739;50.350;7.578;2022-09-30T05:42:26;99192.00;;;7.00;84.91
47883;BME280;37739;50.350;7.578;2022-09-30T05:44:51;99195.41;;;7.00;84.85
47883;BME280;37739;50.350;7.578;2022-09-30T05:47:19;99199.53;;;6.97;84.99
47883;BME280;37739;50.350;7.578;2022-09-30T05:49:44;99208.03;;;6.97;84.91
47883;BME280;37739;50.350;7.578;2022-09-30T05:52:12;99207.28;;;7.00;84.43
47883;BME280;37739;50.350;7.578;2022-09-30T05:54:39;99207.22;;;6.98;84.12
47883;BME280;37739;50.350;7.578;2022-09-30T05:57:09;99218.25;;;6.97;84.40
47883;BME280;37739;50.350;7.578;2022-09-30T05:59:34;99222.41;;;6.95;84.53
47883;BME280;37739;50.350;7.578;2022-09-30T06:02:02;99223.13;;;6.93;84.48
47883;BME280;37739;50.350;7.578;2022-09-30T06:04:29;99217.06;;;6.89;84.57
47883;BME280;37739;50.350;7.578;2022-09-30T06:06:57;99221.19;;;6.87;84.78
47883;BME280;37739;50.350;7.578;2022-09-30T06:09:23;99216.22;;;6.90;84.13
47883;BME280;37739;50.350;7.578;2022-09-30T06:11:48;99212.00;;;6.91;84.65
47883;BME280;37739;50.350;7.578;2022-09-30T06:14:16;99213.75;;;6.92;84.37
47883;BME280;37739;50.350;7.578;2022-09-30T06:16:46;99215.56;;;6.94;84.94
47883;BME280;37739;50.350;7.578;2022-09-30T06:19:16;99219.72;;;6.92;85.22
47883;BME280;37739;50.350;7.578;2022-09-30T06:21:47;99231.53;;;6.90;86.18
47883;BME280;37739;50.350;7.578;2022-09-30T06:24:15;99228.31;;;6.94;85.63
47883;BME280;37739;50.350;7.578;2022-09-30T06:26:40;99238.56;;;6.96;85.90
47883;BME280;37739;50.350;7.578;2022-09-30T06:29:07;99245.38;;;6.95;86.03
47883;BME280;37739;50.350;7.578;2022-09-30T06:31:32;99244.69;;;6.99;86.14
47883;BME280;37739;50.350;7.578;2022-09-30T06:33:57;99248.34;;;7.06;86.05
47883;BME280;37739;50.350;7.578;2022-09-30T06:36:25;99253.44;;;7.06;86.33
47883;BME280;37739;50.350;7.578;2022-09-30T06:38:53;99258.56;;;7.06;86.06
47883;BME280;37739;50.350;7.578;2022-09-30T06:41:19;99263.78;;;7.09;86.02
47883;BME280;37739;50.350;7.578;2022-09-30T06:43:45;99265.16;;;7.01;85.72
47883;BME280;37739;50.350;7.578;2022-09-30T06:46:10;99260.78;;;6.98;86.48
47883;BME280;37739;50.350;7.578;2022-09-30T06:48:37;99256.13;;;7.09;86.16
47883;BME280;37739;50.350;7.578;2022-09-30T06:51:03;99252.72;;;7.08;85.12
47883;BME280;37739;50.350;7.578;2022-09-30T06:53:28;99261.25;;;7.09;86.10
47883;BME280;37739;50.350;7.578;2022-09-30T06:55:58;99259.81;;;7.16;85.88
47883;BME280;37739;50.350;7.578;2022-09-30T06:58:24;99279.16;;;7.11;85.96
47883;BME280;37739;50.350;7.578;2022-09-30T07:00:59;99281.25;;;7.00;85.99
47883;BME280;37739;50.350;7.578;2022-09-30T07:03:32;99297.50;;;7.02;86.80
47883;BME280;37739;50.350;7.578;2022-09-30T07:06:04;99293.00;;;6.96;85.99
47883;BME280;37739;50.350;7.578;2022-09-30T07:08:34;99290.72;;;6.83;86.51
47883;BME280;37739;50.350;7.578;2022-09-30T07:11:11;99304.28;;;6.82;86.80
47883;BME280;37739;50.350;7.578;2022-09-30T07:13:44;99288.63;;;6.94;86.03
47883;BME280;37739;50.350;7.578;2022-09-30T07:16:11;99288.91;;;7.00;85.68
47883;BME280;37739;50.350;7.578;2022-09-30T07:18:38;99290.84;;;7.05;85.40
47883;BME280;37739;50.350;7.578;2022-09-30T07:21:06;99289.03;;;7.03;85.65
47883;BME280;37739;50.350;7.578;2022-09-30T07:23:31;99293.53;;;7.08;85.05
47883;BME280;37739;50.350;7.578;2022-09-30T07:25:59;99292.63;;;7.08;84.73
47883;BME280;37739;50.350;7.578;2022-09-30T07:28:29;99288.69;;;7.15;85.05
47883;BME280;37739;50.350;7.578;2022-09-30T07:30:58;99286.22;;;7.16;85.07
47883;BME280;37739;50.350;7.578;2022-09-30T07:33:26;99285.63;;;7.23;84.98
47883;BME280;37739;50.350;7.578;2022-09-30T07:35:58;99294.97;;;7.23;84.87
47883;BME280;37739;50.350;7.578;2022-09-30T07:38:27;99298.53;;;7.26;84.99
47883;BME280;37739;50.350;7.578;2022-09-30T07:43:24;99295.50;;;7.35;84.51
47883;BME280;37739;50.350;7.578;2022-09-30T07:46:12;99301.41;;;7.34;84.48
47883;BME280;37739;50.350;7.578;2022-09-30T07:48:39;99313.47;;;7.38;84.44
47883;BME280;37739;50.350;7.578;2022-09-30T07:51:23;99310.59;;;7.31;83.96
47883;BME280;37739;50.350;7.578;2022-09-30T07:53:52;99319.03;;;7.28;84.61
47883;BME280;37739;50.350;7.578;2022-09-30T07:56:18;99308.06;;;7.31;84.38
47883;BME280;37739;50.350;7.578;2022-09-30T07:58:46;99315.25;;;7.39;84.88
47883;BME280;37739;50.350;7.578;2022-09-30T08:01:14;99313.69;;;7.43;84.54
47883;BME280;37739;50.350;7.578;2022-09-30T08:03:44;99317.44;;;7.51;84.51
47883;BME280;37739;50.350;7.578;2022-09-30T08:06:12;99308.16;;;7.53;84.57
47883;BME280;37739;50.350;7.578;2022-09-30T08:08:42;99309.09;;;7.55;84.62
47883;BME280;37739;50.350;7.578;2022-09-30T08:11:09;99312.81;;;7.63;84.75
47883;BME280;37739;50.350;7.578;2022-09-30T08:13:35;99317.53;;;7.75;84.07
47883;BME280;37739;50.350;7.578;2022-09-30T08:16:03;99315.56;;;7.68;84.31
47883;BME280;37739;50.350;7.578;2022-09-30T08:18:33;99318.91;;;7.67;83.62
47883;BME280;37739;50.350;7.578;2022-09-30T08:21:08;99315.75;;;7.73;83.73
47883;BME280;37739;50.350;7.578;2022-09-30T08:23:33;99315.81;;;7.74;83.22
47883;BME280;37739;50.350;7.578;2022-09-30T08:26:08;99322.84;;;7.80;83.80
47883;BME280;37739;50.350;7.578;2022-09-30T08:28:37;99329.28;;;7.91;83.73
47883;BME280;37739;50.350;7.578;2022-09-30T08:31:13;99328.06;;;7.83;83.61
47883;BME280;37739;50.350;7.578;2022-09-30T08:33:39;99328.81;;;7.80;84.52
47883;BME280;37739;50.350;7.578;2022-09-30T08:36:10;99336.72;;;7.65;84.70
47883;BME280;37739;50.350;7.578;2022-09-30T08:38:36;99332.44;;;7.64;84.48
47883;BME280;37739;50.350;7.578;2022-09-30T08:41:22;99334.56;;;7.75;84.88
47883;BME280;37739;50.350;7.578;2022-09-30T08:51:56;99341.13;;;7.91;85.59
47883;BME280;37739;50.350;7.578;2022-09-30T08:54:25;99347.16;;;7.91;85.10
47883;BME280;37739;50.350;7.578;2022-09-30T08:56:57;99352.03;;;7.86;84.96
47883;BME280;37739;50.350;7.578;2022-09-30T09:04:41;99361.78;;;7.95;84.41
47883;BME280;37739;50.350;7.578;2022-09-30T09:12:37;99355.66;;;8.13;83.63
47883;BME280;37739;50.350;7.578;2022-09-30T09:15:29;99357.28;;;8.11;84.34
47883;BME280;37739;50.350;7.578;2022-09-30T09:18:22;99355.34;;;8.05;83.72
47883;BME280;37739;50.350;7.578;2022-09-30T09:20:57;99351.72;;;8.00;83.97
47883;BME280;37739;50.350;7.578;2022-09-30T09:23:23;99346.00;;;8.05;84.33
47883;BME280;37739;50.350;7.578;2022-09-30T09:25:51;99339.22;;;8.29;83.99
47883;BME280;37739;50.350;7.578;2022-09-30T09:30:55;99344.47;;;8.77;82.24
47883;BME280;37739;50.350;7.578;2022-09-30T09:33:25;99339.88;;;8.91;81.31
47883;BME280;37739;50.350;7.578;2022-09-30T09:35:58;99335.34;;;9.08;81.12
47883;BME280;37739;50.350;7.578;2022-09-30T09:44:07;99333.41;;;9.24;80.19
47883;BME280;37739;50.350;7.578;2022-09-30T09:46:46;99332.47;;;9.48;79.24
47883;BME280;37739;50.350;7.578;2022-09-30T09:54:31;99325.38;;;9.65;78.41
47883;BME280;37739;50.350;7.578;2022-09-30T09:57:11;99321.38;;;10.00;77.42
47883;BME280;37739;50.350;7.578;2022-09-30T09:59:38;99317.38;;;10.36;76.09
47883;BME280;37739;50.350;7.578;2022-09-30T10:02:24;99322.34;;;10.60;75.20
47883;BME280;37739;50.350;7.578;2022-09-30T10:04:50;99316.53;;;10.96;74.69
47883;BME280;37739;50.350;7.578;2022-09-30T10:07:25;99314.44;;;11.13;73.43
47883;BME280;37739;50.350;7.578;2022-09-30T10:10:10;99321.75;;;11.31;72.83
47883;BME280;37739;50.350;7.578;2022-09-30T10:12:40;99325.09;;;11.62;71.63
47883;BME280;37739;50.350;7.578;2022-09-30T10:15:21;99331.28;;;11.70;70.31
47883;BME280;37739;50.350;7.578;2022-09-30T10:17:53;99333.81;;;11.67;70.83
47883;BME280;37739;50.350;7.578;2022-09-30T10:23:00;99327.72;;;11.98;68.15
47883;BME280;37739;50.350;7.578;2022-09-30T10:25:29;99329.66;;;12.07;70.62
47883;BME280;37739;50.350;7.578;2022-09-30T10:28:03;99330.63;;;12.50;69.31
47883;BME280;37739;50.350;7.578;2022-09-30T10:31:02;99326.19;;;12.85;67.71
47883;BME280;37739;50.350;7.578;2022-09-30T10:33:32;99325.03;;;13.13;68.03
47883;BME280;37739;50.350;7.578;2022-09-30T10:36:05;99319.28;;;13.27;67.24
47883;BME280;37739;50.350;7.578;2022-09-30T10:38:35;99315.13;;;13.32;66.87
47883;BME280;37739;50.350;7.578;2022-09-30T10:41:04;99320.38;;;13.38;66.21
47883;BME280;37739;50.350;7.578;2022-09-30T10:43:43;99321.09;;;13.31;66.27
47883;BME280;37739;50.350;7.578;2022-09-30T10:46:12;99319.91;;;13.62;64.92
47883;BME280;37739;50.350;7.578;2022-09-30T10:48:48;99321.75;;;13.68;65.73
47883;BME280;37739;50.350;7.578;2022-09-30T10:51:25;99320.31;;;13.84;65.42
47883;BME280;37739;50.350;7.578;2022-09-30T10:53:50;99322.97;;;13.90;64.59
47883;BME280;37739;50.350;7.578;2022-09-30T10:56:40;99325.84;;;14.10;63.58
47883;BME280;37739;50.350;7.578;2022-09-30T10:59:13;99322.78;;;14.37;63.08
47883;BME280;37739;50.350;7.578;2022-09-30T11:01:54;99320.31;;;14.42;62.87
47883;BME280;37739;50.350;7.578;2022-09-30T11:06:55;99315.44;;;14.63;60.95
47883;BME280;37739;50.350;7.578;2022-09-30T11:09:35;99329.06;;;14.54;61.70
47883;BME280;37739;50.350;7.578;2022-09-30T11:12:13;99326.09;;;14.91;61.29
47883;BME280;37739;50.350;7.578;2022-09-30T11:14:47;99315.19;;;15.15;61.69
47883;BME280;37739;50.350;7.578;2022-09-30T11:20:20;99315.69;;;15.67;61.58
47883;BME280;37739;50.350;7.578;2022-09-30T11:23:00;99308.09;;;15.84;59.46
47883;BME280;37739;50.350;7.578;2022-09-30T11:25:56;99309.00;;;15.91;59.11
47883;BME280;37739;50.350;7.578;2022-09-30T11:34:36;99295.63;;;16.58;57.01
47883;BME280;37739;50.350;7.578;2022-09-30T11:40:01;99292.19;;;16.59;57.07
47883;BME280;37739;50.350;7.578;2022-09-30T11:48:20;99282.81;;;16.83;53.86
47883;BME280;37739;50.350;7.578;2022-09-30T11:51:17;99283.69;;;16.97;55.73
47883;BME280;37739;50.350;7.578;2022-09-30T11:56:47;99280.31;;;17.35;52.53
47883;BME280;37739;50.350;7.578;2022-09-30T11:59:25;99278.59;;;17.39;52.43
47883;BME280;37739;50.350;7.578;2022-09-30T12:01:57;99282.06;;;17.52;52.41
47883;BME280;37739;50.350;7.578;2022-09-30T12:07:00;99280.31;;;17.57;53.20
47883;BME280;37739;50.350;7.578;2022-09-30T12:09:36;99273.44;;;17.87;51.31
47883;BME280;37739;50.350;7.578;2022-09-30T12:12:11;99269.97;;;17.98;50.84
47883;BME280;37739;50.350;7.578;2022-09-30T12:14:50;99269.94;;;18.15;49.36
47883;BME280;37739;50.350;7.578;2022-09-30T12:17:43;99262.13;;;18.21;51.54
47883;BME280;37739;50.350;7.578;2022-09-30T12:22:40;99275.97;;;18.20;49.72
47883;BME280;37739;50.350;7.578;2022-09-30T12:25:18;99281.19;;;17.82;48.61
47883;BME280;37739;50.350;7.578;2022-09-30T12:30:19;99285.50;;;18.31;50.83
47883;BME280;37739;50.350;7.578;2022-09-30T12:33:17;99278.38;;;18.76;48.80
47883;BME280;37739;50.350;7.578;2022-09-30T12:38:52;99276.31;;;19.38;45.22
47883;BME280;37739;50.350;7.578;2022-09-30T12:41:53;99276.19;;;19.55;44.23
47883;BME280;37739;50.350;7.578;2022-09-30T12:49:36;99273.06;;;20.18;41.90
47883;BME280;37739;50.350;7.578;2022-09-30T12:52:05;99266.97;;;20.19;43.13
47883;BME280;37739;50.350;7.578;2022-09-30T12:54:34;99274.66;;;20.30;44.12
47883;BME280;37739;50.350;7.578;2022-09-30T12:57:07;99262.38;;;20.43;41.98
47883;BME280;37739;50.350;7.578;2022-09-30T12:59:44;99264.06;;;20.47;39.05
47883;BME280;37739;50.350;7.578;2022-09-30T13:13:32;99257.34;;;20.98;38.18
47883;BME280;37739;50.350;7.578;2022-09-30T13:16:01;99256.28;;;21.12;40.82
47883;BME280;37739;50.350;7.578;2022-09-30T13:29:25;99261.97;;;21.38;36.85
47883;BME280;37739;50.350;7.578;2022-09-30T13:34:22;99257.63;;;21.36;36.00
47883;BME280;37739;50.350;7.578;2022-09-30T13:42:34;99242.34;;;21.13;33.53
47883;BME280;37739;50.350;7.578;2022-09-30T13:44:56;99248.16;;;21.30;36.66
47883;BME280;37739;50.350;7.578;2022-09-30T13:47:36;99248.34;;;21.20;33.25
47883;BME280;37739;50.350;7.578;2022-09-30T13:50:17;99247.38;;;21.25;32.51
47883;BME280;37739;50.350;7.578;2022-09-30T13:52:47;99250.81;;;21.27;34.36
47883;BME280;37739;50.350;7.578;2022-09-30T13:55:43;99243.00;;;21.27;31.15
47883;BME280;37739;50.350;7.578;2022-09-30T14:01:12;99242.19;;;21.22;31.09
47883;BME280;37739;50.350;7.578;2022-09-30T14:18:10;99219.38;;;20.77;30.92
47883;BME280;37739;50.350;7.578;2022-09-30T14:23:17;99209.19;;;20.61;33.42
47883;BME280;37739;50.350;7.578;2022-09-30T14:25:54;99218.16;;;20.35;30.69
47883;BME280;37739;50.350;7.578;2022-09-30T14:28:51;99213.16;;;20.16;30.27
47883;BME280;37739;50.350;7.578;2022-09-30T14:31:19;99208.28;;;19.86;34.23
47883;BME280;37739;50.350;7.578;2022-09-30T14:33:48;99207.63;;;19.64;34.50
47883;BME280;37739;50.350;7.578;2022-09-30T14:36:19;99217.38;;;19.40;33.48
47883;BME280;37739;50.350;7.578;2022-09-30T14:38:53;99216.59;;;19.29;33.98
47883;BME280;37739;50.350;7.578;2022-09-30T14:41:24;99218.44;;;19.11;34.83
47883;BME280;37739;50.350;7.578;2022-09-30T14:43:57;99206.41;;;18.98;35.20
47883;BME280;37739;50.350;7.578;2022-09-30T14:48:49;99202.16;;;18.80;36.54
47883;BME280;37739;50.350;7.578;2022-09-30T14:51:16;99205.72;;;18.60;36.58
47883;BME280;37739;50.350;7.578;2022-09-30T14:53:56;99204.91;;;18.49;36.34
47883;BME280;37739;50.350;7.578;2022-09-30T14:56:28;99203.25;;;18.31;36.21
47883;BME280;37739;50.350;7.578;2022-09-30T14:58:58;99201.53;;;18.25;37.63
47883;BME280;37739;50.350;7.578;2022-09-30T15:01:27;99198.09;;;18.23;38.36
47883;BME280;37739;50.350;7.578;2022-09-30T15:03:57;99199.81;;;18.18;38.48
47883;BME280;37739;50.350;7.578;2022-09-30T15:06:30;99193.78;;;18.15;39.00
47883;BME280;37739;50.350;7.578;2022-09-30T15:09:03;99191.22;;;18.07;38.81
47883;BME280;37739;50.350;7.578;2022-09-30T15:11:30;99194.69;;;18.03;39.68
47883;BME280;37739;50.350;7.578;2022-09-30T15:14:18;99192.13;;;17.98;39.32
47883;BME280;37739;50.350;7.578;2022-09-30T15:16:50;99182.63;;;17.91;40.67
47883;BME280;37739;50.350;7.578;2022-09-30T15:19:31;99186.09;;;17.85;40.87
47883;BME280;37739;50.350;7.578;2022-09-30T15:22:02;99187.81;;;17.80;40.90
47883;BME280;37739;50.350;7.578;2022-09-30T15:24:30;99178.31;;;17.72;41.22
47883;BME280;37739;50.350;7.578;2022-09-30T15:27:00;99186.97;;;17.58;41.02
47883;BME280;37739;50.350;7.578;2022-09-30T15:29:27;99187.84;;;17.56;41.39
47883;BME280;37739;50.350;7.578;2022-09-30T15:32:11;99191.31;;;17.49;40.79
47883;BME280;37739;50.350;7.578;2022-09-30T15:34:39;99192.19;;;17.48;41.63
47883;BME280;37739;50.350;7.578;2022-09-30T15:37:24;99187.84;;;17.40;41.22
47883;BME280;37739;50.350;7.578;2022-09-30T15:39:51;99187.84;;;17.40;41.72
47883;BME280;37739;50.350;7.578;2022-09-30T15:42:37;99188.72;;;17.36;41.50
47883;BME280;37739;50.350;7.578;2022-09-30T15:45:31;99188.69;;;17.30;41.73
47883;BME280;37739;50.350;7.578;2022-09-30T15:50:41;99190.44;;;17.13;42.20
47883;BME280;37739;50.350;7.578;2022-09-30T15:53:22;99188.72;;;17.13;42.23
47883;BME280;37739;50.350;7.578;2022-09-30T15:55:50;99196.47;;;17.15;43.54
47883;BME280;37739;50.350;7.578;2022-09-30T16:00:51;99197.34;;;17.01;43.64
47883;BME280;37739;50.350;7.578;2022-09-30T16:05:44;99194.75;;;16.97;44.27
47883;BME280;37739;50.350;7.578;2022-09-30T16:08:19;99212.03;;;16.90;44.00
47883;BME280;37739;50.350;7.578;2022-09-30T16:10:55;99202.50;;;16.84;44.41
47883;BME280;37739;50.350;7.578;2022-09-30T16:13:24;99210.22;;;16.80;45.03
47883;BME280;37739;50.350;7.578;2022-09-30T16:15:55;99205.03;;;16.75;45.17
47883;BME280;37739;50.350;7.578;2022-09-30T16:18:27;99204.13;;;16.68;45.47
47883;BME280;37739;50.350;7.578;2022-09-30T16:21:01;99211.91;;;16.64;45.24
47883;BME280;37739;50.350;7.578;2022-09-30T16:23:35;99212.75;;;16.58;45.55
47883;BME280;37739;50.350;7.578;2022-09-30T16:28:48;99216.19;;;16.59;45.87
47883;BME280;37739;50.350;7.578;2022-09-30T16:31:13;99211.91;;;16.58;45.98
47883;BME280;37739;50.350;7.578;2022-09-30T16:33:43;99214.47;;;16.56;45.94
47883;BME280;37739;50.350;7.578;2022-09-30T16:36:11;99212.75;;;16.54;46.06
47883;BME280;37739;50.350;7.578;2022-09-30T16:38:38;99212.72;;;16.49;46.52
47883;BME280;37739;50.350;7.578;2022-09-30T16:41:04;99210.09;;;16.43;46.35
47883;BME280;37739;50.350;7.578;2022-09-30T16:43:30;99220.44;;;16.41;46.28